sensor_id;sensor_type;location;lat;lon;timestamp;temperature;humidity
54202;DHT22;40108;53.152;5.844;2023-11-19T00:00:17;11.60;99.70
54202;DHT22;40108;53.152;5.844;2023-11-19T00:02:43;11.70;99.70
54202;DHT22;40108;53.152;5.844;2023-11-19T00:05:09;11.70;99.70
54202;DHT22;40108;53.152;5.844;2023-11-19T00:07:37;11.70;99.70
54202;DHT22;40108;53.152;5.844;2023-11-19T00:10:11;11.70;99.70
54202;DHT22;40108;53.152;5.844;2023-11-19T00:12:48;11.70;99.70
54202;DHT22;40108;53.152;5.844;2023-11-19T00:15:18;11.70;99.70
54202;DHT22;40108;53.152;5.844;2023-11-19T00:17:47;11.70;99.70
54202;DHT22;40108;53.152;5.844;2023-11-19T00:20:15;11.70;99.70
54202;DHT22;40108;53.152;5.844;2023-11-19T00:22:44;11.80;99.70
54202;DHT22;40108;53.152;5.844;2023-11-19T00:25:11;11.70;99.70
54202;DHT22;40108;53.152;5.844;2023-11-19T00:27:37;11.80;99.70
54202;DHT22;40108;53.152;5.844;2023-11-19T00:30:04;11.80;99.70
54202;DHT22;40108;53.152;5.844;2023-11-19T00:32:34;11.80;99.70
54202;DHT22;40108;53.152;5.844;2023-11-19T00:35:00;11.80;99.70
54202;DHT22;40108;53.152;5.844;2023-11-19T00:37:26;11.80;99.70
54202;DHT22;40108;53.152;5.844;2023-11-19T00:39:52;11.80;99.70
54202;DHT22;40108;53.152;5.844;2023-11-19T00:42:17;11.80;99.70
54202;DHT22;40108;53.152;5.844;2023-11-19T00:44:43;11.80;99.70
54202;DHT22;40108;53.152;5.844;2023-11-19T00:47:09;11.80;99.60
54202;DHT22;40108;53.152;5.844;2023-11-19T00:49:34;11.80;99.70
54202;DHT22;40108;53.152;5.844;2023-11-19T00:52:00;11.70;99.60
54202;DHT22;40108;53.152;5.844;2023-11-19T00:54:27;11.80;99.70
54202;DHT22;40108;53.152;5.844;2023-11-19T00:56:53;11.70;99.60
54202;DHT22;40108;53.152;5.844;2023-11-19T00:59:19;11.80;99.70
54202;DHT22;40108;53.152;5.844;2023-11-19T01:01:45;11.80;99.70
54202;DHT22;40108;53.152;5.844;2023-11-19T01:04:13;11.80;99.60
54202;DHT22;40108;53.152;5.844;2023-11-19T01:06:39;11.80;99.60
54202;DHT22;40108;53.152;5.844;2023-11-19T01:09:05;11.70;99.60
54202;DHT22;40108;53.152;5.844;2023-11-19T01:11:31;11.70;99.60
54202;DHT22;40108;53.152;5.844;2023-11-19T01:13:57;11.70;99.60
54202;DHT22;40108;53.152;5.844;2023-11-19T01:16:22;11.70;99.60
54202;DHT22;40108;53.152;5.844;2023-11-19T01:18:48;11.70;99.60
54202;DHT22;40108;53.152;5.844;2023-11-19T01:21:14;11.70;99.60
54202;DHT22;40108;53.152;5.844;2023-11-19T01:23:41;11.70;99.60
54202;DHT22;40108;53.152;5.844;2023-11-19T01:26:14;11.70;99.60
54202;DHT22;40108;53.152;5.844;2023-11-19T01:28:40;11.60;99.60
54202;DHT22;40108;53.152;5.844;2023-11-19T01:31:14;11.60;99.60
54202;DHT22;40108;53.152;5.844;2023-11-19T01:33:40;11.60;99.60
54202;DHT22;40108;53.152;5.844;2023-11-19T01:36:07;11.60;99.60
54202;DHT22;40108;53.152;5.844;2023-11-19T01:38:34;11.60;99.60
54202;DHT22;40108;53.152;5.844;2023-11-19T01:41:00;11.60;99.60
54202;DHT22;40108;53.152;5.844;2023-11-19T01:43:35;11.50;99.60
54202;DHT22;40108;53.152;5.844;2023-11-19T01:46:02;11.50;99.60
54202;DHT22;40108;53.152;5.844;2023-11-19T01:48:29;11.50;99.50
54202;DHT22;40108;53.152;5.844;2023-11-19T01:50:56;11.40;99.50
54202;DHT22;40108;53.152;5.844;2023-11-19T01:53:22;11.40;99.60
54202;DHT22;40108;53.152;5.844;2023-11-19T01:55:48;11.30;99.60
54202;DHT22;40108;53.152;5.844;2023-11-19T01:58:15;11.30;99.50
54202;DHT22;40108;53.152;5.844;2023-11-19T02:00:41;11.30;99.50
54202;DHT22;40108;53.152;5.844;2023-11-19T02:03:08;11.20;99.50
54202;DHT22;40108;53.152;5.844;2023-11-19T02:05:34;11.20;99.50
54202;DHT22;40108;53.152;5.844;2023-11-19T02:08:01;11.10;99.50
54202;DHT22;40108;53.152;5.844;2023-11-19T02:10:27;11.10;99.50
54202;DHT22;40108;53.152;5.844;2023-11-19T02:12:53;11.10;99.50
54202;DHT22;40108;53.152;5.844;2023-11-19T02:15:18;11.10;99.50
54202;DHT22;40108;53.152;5.844;2023-11-19T02:17:44;11.10;99.60
54202;DHT22;40108;53.152;5.844;2023-11-19T02:20:10;11.10;99.50
54202;DHT22;40108;53.152;5.844;2023-11-19T02:22:38;11.10;99.60
54202;DHT22;40108;53.152;5.844;2023-11-19T02:25:07;11.10;99.50
54202;DHT22;40108;53.152;5.844;2023-11-19T02:27:51;11.10;99.50
54202;DHT22;40108;53.152;5.844;2023-11-19T02:30:21;11.10;99.50
54202;DHT22;40108;53.152;5.844;2023-11-19T02:32:52;11.10;99.60
54202;DHT22;40108;53.152;5.844;2023-11-19T02:35:19;11.00;99.60
54202;DHT22;40108;53.152;5.844;2023-11-19T02:37:44;11.00;99.50
54202;DHT22;40108;53.152;5.844;2023-11-19T02:40:10;11.00;99.50
54202;DHT22;40108;53.152;5.844;2023-11-19T02:42:36;11.00;99.50
54202;DHT22;40108;53.152;5.844;2023-11-19T02:45:02;11.00;99.50
54202;DHT22;40108;53.152;5.844;2023-11-19T02:47:32;11.00;99.50
54202;DHT22;40108;53.152;5.844;2023-11-19T02:49:59;11.10;99.50
54202;DHT22;40108;53.152;5.844;2023-11-19T02:52:25;11.10;99.60
54202;DHT22;40108;53.152;5.844;2023-11-19T02:54:51;11.10;99.60
54202;DHT22;40108;53.152;5.844;2023-11-19T02:57:17;11.10;99.60
54202;DHT22;40108;53.152;5.844;2023-11-19T02:59:45;11.20;99.50
54202;DHT22;40108;53.152;5.844;2023-11-19T03:02:10;11.20;99.50
54202;DHT22;40108;53.152;5.844;2023-11-19T03:04:41;11.20;99.50
54202;DHT22;40108;53.152;5.844;2023-11-19T03:07:11;11.20;99.50
54202;DHT22;40108;53.152;5.844;2023-11-19T03:09:37;11.30;99.60
54202;DHT22;40108;53.152;5.844;2023-11-19T03:12:06;11.30;99.50
54202;DHT22;40108;53.152;5.844;2023-11-19T03:14:33;11.30;99.50
54202;DHT22;40108;53.152;5.844;2023-11-19T03:17:03;11.40;99.60
54202;DHT22;40108;53.152;5.844;2023-11-19T03:19:30;11.40;99.60
54202;DHT22;40108;53.152;5.844;2023-11-19T03:21:56;11.40;99.50
54202;DHT22;40108;53.152;5.844;2023-11-19T03:24:22;11.40;99.50
54202;DHT22;40108;53.152;5.844;2023-11-19T03:26:50;11.40;99.50
54202;DHT22;40108;53.152;5.844;2023-11-19T03:29:16;11.50;99.50
54202;DHT22;40108;53.152;5.844;2023-11-19T03:31:42;11.40;99.50
54202;DHT22;40108;53.152;5.844;2023-11-19T03:34:08;11.40;99.50
54202;DHT22;40108;53.152;5.844;2023-11-19T03:36:34;11.40;99.50
54202;DHT22;40108;53.152;5.844;2023-11-19T03:39:00;11.40;99.50
54202;DHT22;40108;53.152;5.844;2023-11-19T03:41:25;11.40;99.50
54202;DHT22;40108;53.152;5.844;2023-11-19T03:43:51;11.30;99.50
54202;DHT22;40108;53.152;5.844;2023-11-19T03:46:20;11.20;99.40
54202;DHT22;40108;53.152;5.844;2023-11-19T03:48:50;11.20;99.40
54202;DHT22;40108;53.152;5.844;2023-11-19T03:51:16;11.10;99.40
54202;DHT22;40108;53.152;5.844;2023-11-19T03:53:45;11.10;99.40
54202;DHT22;40108;53.152;5.844;2023-11-19T03:56:11;11.00;99.40
54202;DHT22;40108;53.152;5.844;2023-11-19T03:58:38;10.90;99.40
54202;DHT22;40108;53.152;5.844;2023-11-19T04:01:05;10.90;99.40
54202;DHT22;40108;53.152;5.844;2023-11-19T04:03:31;10.90;99.40
54202;DHT22;40108;53.152;5.844;2023-11-19T04:05:56;10.80;99.30
54202;DHT22;40108;53.152;5.844;2023-11-19T04:08:22;10.80;99.40
54202;DHT22;40108;53.152;5.844;2023-11-19T04:10:48;10.70;99.40
54202;DHT22;40108;53.152;5.844;2023-11-19T04:13:14;10.70;99.40
54202;DHT22;40108;53.152;5.844;2023-11-19T04:15:40;10.70;99.30
54202;DHT22;40108;53.152;5.844;2023-11-19T04:18:05;10.70;99.40
54202;DHT22;40108;53.152;5.844;2023-11-19T04:20:31;10.70;99.30
54202;DHT22;40108;53.152;5.844;2023-11-19T04:22:57;10.70;99.30
54202;DHT22;40108;53.152;5.844;2023-11-19T04:25:23;10.70;99.30
54202;DHT22;40108;53.152;5.844;2023-11-19T04:27:51;10.80;99.30
54202;DHT22;40108;53.152;5.844;2023-11-19T04:30:17;10.80;99.30
54202;DHT22;40108;53.152;5.844;2023-11-19T04:32:44;10.90;99.30
54202;DHT22;40108;53.152;5.844;2023-11-19T04:35:09;10.90;99.30
54202;DHT22;40108;53.152;5.844;2023-11-19T04:37:36;10.90;99.30
54202;DHT22;40108;53.152;5.844;2023-11-19T04:40:03;10.90;99.30
54202;DHT22;40108;53.152;5.844;2023-11-19T04:42:29;10.90;99.30
54202;DHT22;40108;53.152;5.844;2023-11-19T04:44:55;10.90;99.30
54202;DHT22;40108;53.152;5.844;2023-11-19T04:47:21;10.90;99.30
54202;DHT22;40108;53.152;5.844;2023-11-19T04:49:46;10.90;99.20
54202;DHT22;40108;53.152;5.844;2023-11-19T04:52:12;10.90;99.20
54202;DHT22;40108;53.152;5.844;2023-11-19T04:54:42;10.90;99.20
54202;DHT22;40108;53.152;5.844;2023-11-19T04:57:09;11.00;99.20
54202;DHT22;40108;53.152;5.844;2023-11-19T04:59:38;10.90;99.20
54202;DHT22;40108;53.152;5.844;2023-11-19T05:02:04;11.00;99.10
54202;DHT22;40108;53.152;5.844;2023-11-19T05:04:30;11.00;99.10
54202;DHT22;40108;53.152;5.844;2023-11-19T05:06:56;11.00;99.10
54202;DHT22;40108;53.152;5.844;2023-11-19T05:09:21;11.00;99.10
54202;DHT22;40108;53.152;5.844;2023-11-19T05:11:47;11.00;99.10
54202;DHT22;40108;53.152;5.844;2023-11-19T05:14:14;10.90;99.00
54202;DHT22;40108;53.152;5.844;2023-11-19T05:16:40;11.00;99.00
54202;DHT22;40108;53.152;5.844;2023-11-19T05:19:06;10.90;99.00
54202;DHT22;40108;53.152;5.844;2023-11-19T05:21:32;11.00;99.00
54202;DHT22;40108;53.152;5.844;2023-11-19T05:23:57;11.00;98.90
54202;DHT22;40108;53.152;5.844;2023-11-19T05:26:23;10.90;98.90
54202;DHT22;40108;53.152;5.844;2023-11-19T05:28:49;10.80;98.90
54202;DHT22;40108;53.152;5.844;2023-11-19T05:31:16;10.80;98.80
54202;DHT22;40108;53.152;5.844;2023-11-19T05:33:42;10.90;98.80
54202;DHT22;40108;53.152;5.844;2023-11-19T05:36:08;10.80;98.70
54202;DHT22;40108;53.152;5.844;2023-11-19T05:38:36;10.90;98.70
54202;DHT22;40108;53.152;5.844;2023-11-19T05:41:05;10.90;98.70
54202;DHT22;40108;53.152;5.844;2023-11-19T05:43:31;10.90;98.60
54202;DHT22;40108;53.152;5.844;2023-11-19T05:45:57;10.90;98.60
54202;DHT22;40108;53.152;5.844;2023-11-19T05:48:25;10.90;98.50
54202;DHT22;40108;53.152;5.844;2023-11-19T05:50:51;10.90;98.50
54202;DHT22;40108;53.152;5.844;2023-11-19T05:53:17;10.90;98.40
54202;DHT22;40108;53.152;5.844;2023-11-19T05:55:43;10.90;98.40
54202;DHT22;40108;53.152;5.844;2023-11-19T05:58:15;10.90;98.30
54202;DHT22;40108;53.152;5.844;2023-11-19T06:00:41;10.90;98.30
54202;DHT22;40108;53.152;5.844;2023-11-19T06:03:10;10.90;98.20
54202;DHT22;40108;53.152;5.844;2023-11-19T06:05:35;10.90;98.10
54202;DHT22;40108;53.152;5.844;2023-11-19T06:08:01;10.90;98.10
54202;DHT22;40108;53.152;5.844;2023-11-19T06:10:27;10.90;98.00
54202;DHT22;40108;53.152;5.844;2023-11-19T06:12:59;10.90;97.90
54202;DHT22;40108;53.152;5.844;2023-11-19T06:15:26;10.90;97.80
54202;DHT22;40108;53.152;5.844;2023-11-19T06:17:52;10.90;97.70
54202;DHT22;40108;53.152;5.844;2023-11-19T06:20:18;10.90;97.70
54202;DHT22;40108;53.152;5.844;2023-11-19T06:22:45;10.90;97.70
54202;DHT22;40108;53.152;5.844;2023-11-19T06:25:12;10.90;97.50
54202;DHT22;40108;53.152;5.844;2023-11-19T06:27:40;10.90;97.40
54202;DHT22;40108;53.152;5.844;2023-11-19T06:30:07;10.80;97.40
54202;DHT22;40108;53.152;5.844;2023-11-19T06:32:33;10.90;97.20
54202;DHT22;40108;53.152;5.844;2023-11-19T06:34:59;10.80;97.20
54202;DHT22;40108;53.152;5.844;2023-11-19T06:37:24;10.80;97.10
54202;DHT22;40108;53.152;5.844;2023-11-19T06:39:50;10.80;97.00
54202;DHT22;40108;53.152;5.844;2023-11-19T06:42:16;10.80;96.90
54202;DHT22;40108;53.152;5.844;2023-11-19T06:44:42;10.80;96.80
54202;DHT22;40108;53.152;5.844;2023-11-19T06:47:07;10.70;96.80
54202;DHT22;40108;53.152;5.844;2023-11-19T06:49:33;10.70;96.70
54202;DHT22;40108;53.152;5.844;2023-11-19T06:51:59;10.70;96.70
54202;DHT22;40108;53.152;5.844;2023-11-19T06:54:24;10.80;96.60
54202;DHT22;40108;53.152;5.844;2023-11-19T06:56:50;10.80;96.50
54202;DHT22;40108;53.152;5.844;2023-11-19T06:59:16;10.80;96.50
54202;DHT22;40108;53.152;5.844;2023-11-19T07:01:42;10.70;96.40
54202;DHT22;40108;53.152;5.844;2023-11-19T07:04:11;10.80;96.30
54202;DHT22;40108;53.152;5.844;2023-11-19T07:06:38;10.80;96.30
54202;DHT22;40108;53.152;5.844;2023-11-19T07:09:06;10.80;96.20
54202;DHT22;40108;53.152;5.844;2023-11-19T07:11:41;10.80;96.00
54202;DHT22;40108;53.152;5.844;2023-11-19T07:14:08;10.80;96.00
54202;DHT22;40108;53.152;5.844;2023-11-19T07:16:34;10.80;95.90
54202;DHT22;40108;53.152;5.844;2023-11-19T07:19:01;10.80;95.90
54202;DHT22;40108;53.152;5.844;2023-11-19T07:21:27;10.70;95.90
54202;DHT22;40108;53.152;5.844;2023-11-19T07:23:55;10.70;95.80
54202;DHT22;40108;53.152;5.844;2023-11-19T07:26:22;10.70;95.80
54202;DHT22;40108;53.152;5.844;2023-11-19T07:28:48;10.60;95.70
54202;DHT22;40108;53.152;5.844;2023-11-19T07:31:14;10.60;95.70
54202;DHT22;40108;53.152;5.844;2023-11-19T07:33:40;10.70;95.80
54202;DHT22;40108;53.152;5.844;2023-11-19T07:36:09;10.70;95.80
54202;DHT22;40108;53.152;5.844;2023-11-19T07:38:35;10.70;95.80
54202;DHT22;40108;53.152;5.844;2023-11-19T07:41:01;10.70;95.70
54202;DHT22;40108;53.152;5.844;2023-11-19T07:43:27;10.70;95.70
54202;DHT22;40108;53.152;5.844;2023-11-19T07:45:52;10.70;95.70
54202;DHT22;40108;53.152;5.844;2023-11-19T07:48:18;10.70;95.70
54202;DHT22;40108;53.152;5.844;2023-11-19T07:50:49;10.70;95.70
54202;DHT22;40108;53.152;5.844;2023-11-19T07:53:16;10.80;95.60
54202;DHT22;40108;53.152;5.844;2023-11-19T07:55:42;10.80;95.60
54202;DHT22;40108;53.152;5.844;2023-11-19T07:58:07;10.80;95.60
54202;DHT22;40108;53.152;5.844;2023-11-19T08:00:33;10.80;95.50
54202;DHT22;40108;53.152;5.844;2023-11-19T08:02:59;10.90;95.50
54202;DHT22;40108;53.152;5.844;2023-11-19T08:05:24;10.90;95.50
54202;DHT22;40108;53.152;5.844;2023-11-19T08:07:51;10.90;95.60
54202;DHT22;40108;53.152;5.844;2023-11-19T08:10:19;10.90;95.60
54202;DHT22;40108;53.152;5.844;2023-11-19T08:12:44;10.90;95.70
54202;DHT22;40108;53.152;5.844;2023-11-19T08:15:10;10.90;95.70
54202;DHT22;40108;53.152;5.844;2023-11-19T08:17:37;10.90;95.70
54202;DHT22;40108;53.152;5.844;2023-11-19T08:20:03;10.80;95.80
54202;DHT22;40108;53.152;5.844;2023-11-19T08:22:30;10.80;95.80
54202;DHT22;40108;53.152;5.844;2023-11-19T08:24:56;10.80;95.90
54202;DHT22;40108;53.152;5.844;2023-11-19T08:27:22;10.80;95.90
54202;DHT22;40108;53.152;5.844;2023-11-19T08:29:55;10.90;96.00
54202;DHT22;40108;53.152;5.844;2023-11-19T08:32:26;10.80;96.00
54202;DHT22;40108;53.152;5.844;2023-11-19T08:34:52;10.80;96.00
54202;DHT22;40108;53.152;5.844;2023-11-19T08:37:18;10.80;96.10
54202;DHT22;40108;53.152;5.844;2023-11-19T08:39:50;10.90;96.10
54202;DHT22;40108;53.152;5.844;2023-11-19T08:42:17;10.90;96.20
54202;DHT22;40108;53.152;5.844;2023-11-19T08:44:43;11.00;96.30
54202;DHT22;40108;53.152;5.844;2023-11-19T08:47:12;11.00;96.30
54202;DHT22;40108;53.152;5.844;2023-11-19T08:49:41;11.00;96.30
54202;DHT22;40108;53.152;5.844;2023-11-19T08:52:07;11.10;96.40
54202;DHT22;40108;53.152;5.844;2023-11-19T08:54:33;11.20;96.40
54202;DHT22;40108;53.152;5.844;2023-11-19T08:56:59;11.20;96.40
54202;DHT22;40108;53.152;5.844;2023-11-19T08:59:25;11.30;96.40
54202;DHT22;40108;53.152;5.844;2023-11-19T09:01:51;11.30;96.30
54202;DHT22;40108;53.152;5.844;2023-11-19T09:04:17;11.40;96.30
54202;DHT22;40108;53.152;5.844;2023-11-19T09:06:42;11.50;96.40
54202;DHT22;40108;53.152;5.844;2023-11-19T09:09:09;11.50;96.40
54202;DHT22;40108;53.152;5.844;2023-11-19T09:11:35;11.60;96.20
54202;DHT22;40108;53.152;5.844;2023-11-19T09:14:02;11.60;96.10
54202;DHT22;40108;53.152;5.844;2023-11-19T09:16:28;11.60;96.10
54202;DHT22;40108;53.152;5.844;2023-11-19T09:18:53;11.70;96.00
54202;DHT22;40108;53.152;5.844;2023-11-19T09:21:19;11.70;96.00
54202;DHT22;40108;53.152;5.844;2023-11-19T09:23:45;11.60;95.80
54202;DHT22;40108;53.152;5.844;2023-11-19T09:26:13;11.60;95.60
54202;DHT22;40108;53.152;5.844;2023-11-19T09:28:39;11.60;95.60
54202;DHT22;40108;53.152;5.844;2023-11-19T09:31:25;11.60;95.50
54202;DHT22;40108;53.152;5.844;2023-11-19T09:33:50;11.60;95.40
54202;DHT22;40108;53.152;5.844;2023-11-19T09:36:16;11.70;95.30
54202;DHT22;40108;53.152;5.844;2023-11-19T09:38:43;11.70;95.20
54202;DHT22;40108;53.152;5.844;2023-11-19T09:41:10;11.70;95.00
54202;DHT22;40108;53.152;5.844;2023-11-19T09:43:42;11.70;94.90
54202;DHT22;40108;53.152;5.844;2023-11-19T09:46:13;11.70;94.90
54202;DHT22;40108;53.152;5.844;2023-11-19T09:48:41;11.60;94.90
54202;DHT22;40108;53.152;5.844;2023-11-19T09:51:09;11.60;94.80
54202;DHT22;40108;53.152;5.844;2023-11-19T09:53:36;11.60;94.70
54202;DHT22;40108;53.152;5.844;2023-11-19T09:56:02;11.60;94.70
54202;DHT22;40108;53.152;5.844;2023-11-19T09:58:32;11.70;94.70
54202;DHT22;40108;53.152;5.844;2023-11-19T10:00:59;11.60;94.70
54202;DHT22;40108;53.152;5.844;2023-11-19T10:03:26;11.60;94.70
54202;DHT22;40108;53.152;5.844;2023-11-19T10:05:56;11.60;94.70
54202;DHT22;40108;53.152;5.844;2023-11-19T10:08:22;11.60;94.60
54202;DHT22;40108;53.152;5.844;2023-11-19T10:10:48;11.70;94.60
54202;DHT22;40108;53.152;5.844;2023-11-19T10:13:14;11.70;94.60
54202;DHT22;40108;53.152;5.844;2023-11-19T10:15:40;11.70;94.60
54202;DHT22;40108;53.152;5.844;2023-11-19T10:18:07;11.70;94.50
54202;DHT22;40108;53.152;5.844;2023-11-19T10:20:51;11.70;94.50
54202;DHT22;40108;53.152;5.844;2023-11-19T10:23:17;11.70;94.30
54202;DHT22;40108;53.152;5.844;2023-11-19T10:25:43;11.80;94.40
54202;DHT22;40108;53.152;5.844;2023-11-19T10:28:08;11.80;94.30
54202;DHT22;40108;53.152;5.844;2023-11-19T10:30:34;11.80;94.20
54202;DHT22;40108;53.152;5.844;2023-11-19T10:35:33;11.90;94.00
54202;DHT22;40108;53.152;5.844;2023-11-19T10:38:00;11.90;93.90
54202;DHT22;40108;53.152;5.844;2023-11-19T10:40:39;11.90;93.60
54202;DHT22;40108;53.152;5.844;2023-11-19T10:43:06;11.90;93.70
54202;DHT22;40108;53.152;5.844;2023-11-19T10:45:33;12.00;93.70
54202;DHT22;40108;53.152;5.844;2023-11-19T10:47:59;12.10;93.70
54202;DHT22;40108;53.152;5.844;2023-11-19T10:50:26;12.20;93.70
54202;DHT22;40108;53.152;5.844;2023-11-19T10:52:56;12.30;93.10
54202;DHT22;40108;53.152;5.844;2023-11-19T10:55:30;12.40;92.90
54202;DHT22;40108;53.152;5.844;2023-11-19T10:58:03;12.40;92.80
54202;DHT22;40108;53.152;5.844;2023-11-19T11:00:34;12.30;92.80
54202;DHT22;40108;53.152;5.844;2023-11-19T11:03:01;12.30;92.80
54202;DHT22;40108;53.152;5.844;2023-11-19T11:05:30;12.20;92.80
54202;DHT22;40108;53.152;5.844;2023-11-19T11:07:58;12.20;92.80
54202;DHT22;40108;53.152;5.844;2023-11-19T11:10:26;12.20;92.90
54202;DHT22;40108;53.152;5.844;2023-11-19T11:12:52;12.20;92.90
54202;DHT22;40108;53.152;5.844;2023-11-19T11:15:27;12.20;92.90
54202;DHT22;40108;53.152;5.844;2023-11-19T11:17:59;12.10;92.90
54202;DHT22;40108;53.152;5.844;2023-11-19T11:20:28;12.20;92.90
54202;DHT22;40108;53.152;5.844;2023-11-19T11:26:19;12.10;92.80
54202;DHT22;40108;53.152;5.844;2023-11-19T11:29:08;12.10;92.90
54202;DHT22;40108;53.152;5.844;2023-11-19T11:37:33;12.00;93.40
54202;DHT22;40108;53.152;5.844;2023-11-19T11:40:02;12.00;93.50
54202;DHT22;40108;53.152;5.844;2023-11-19T11:42:32;12.00;93.50
54202;DHT22;40108;53.152;5.844;2023-11-19T11:44:59;12.00;93.50
54202;DHT22;40108;53.152;5.844;2023-11-19T11:50:22;12.10;93.50
54202;DHT22;40108;53.152;5.844;2023-11-19T11:55:37;12.20;93.40
54202;DHT22;40108;53.152;5.844;2023-11-19T11:58:06;12.40;93.40
54202;DHT22;40108;53.152;5.844;2023-11-19T12:00:39;12.40;93.20
54202;DHT22;40108;53.152;5.844;2023-11-19T12:03:07;12.50;93.00
54202;DHT22;40108;53.152;5.844;2023-11-19T12:05:38;12.60;92.80
54202;DHT22;40108;53.152;5.844;2023-11-19T12:08:05;12.60;92.60
54202;DHT22;40108;53.152;5.844;2023-11-19T12:10:48;12.70;92.30
54202;DHT22;40108;53.152;5.844;2023-11-19T12:13:15;12.70;91.90
54202;DHT22;40108;53.152;5.844;2023-11-19T12:18:28;12.70;91.80
54202;DHT22;40108;53.152;5.844;2023-11-19T12:20:55;12.70;91.40
54202;DHT22;40108;53.152;5.844;2023-11-19T12:23:22;12.60;91.30
54202;DHT22;40108;53.152;5.844;2023-11-19T12:25:48;12.70;91.20
54202;DHT22;40108;53.152;5.844;2023-11-19T12:28:17;12.70;91.20
54202;DHT22;40108;53.152;5.844;2023-11-19T12:30:43;12.70;91.30
54202;DHT22;40108;53.152;5.844;2023-11-19T12:33:14;12.80;91.30
54202;DHT22;40108;53.152;5.844;2023-11-19T12:35:44;12.80;91.10
54202;DHT22;40108;53.152;5.844;2023-11-19T12:38:19;12.70;90.80
54202;DHT22;40108;53.152;5.844;2023-11-19T12:41:09;12.70;90.90
54202;DHT22;40108;53.152;5.844;2023-11-19T12:43:39;12.70;90.70
54202;DHT22;40108;53.152;5.844;2023-11-19T12:48:46;12.70;90.60
54202;DHT22;40108;53.152;5.844;2023-11-19T12:51:12;12.70;90.40
54202;DHT22;40108;53.152;5.844;2023-11-19T12:53:51;12.60;90.50
54202;DHT22;40108;53.152;5.844;2023-11-19T12:56:21;12.60;90.30
54202;DHT22;40108;53.152;5.844;2023-11-19T12:58:47;12.60;90.50
54202;DHT22;40108;53.152;5.844;2023-11-19T13:01:17;12.60;90.60
54202;DHT22;40108;53.152;5.844;2023-11-19T13:03:44;12.60;90.70
54202;DHT22;40108;53.152;5.844;2023-11-19T13:06:11;12.50;90.70
54202;DHT22;40108;53.152;5.844;2023-11-19T13:11:03;12.40;90.80
54202;DHT22;40108;53.152;5.844;2023-11-19T13:13:29;12.40;90.80
54202;DHT22;40108;53.152;5.844;2023-11-19T13:16:05;12.30;90.90
54202;DHT22;40108;53.152;5.844;2023-11-19T13:18:34;12.20;90.90
54202;DHT22;40108;53.152;5.844;2023-11-19T13:21:00;12.20;91.00
54202;DHT22;40108;53.152;5.844;2023-11-19T13:23:26;12.20;91.00
54202;DHT22;40108;53.152;5.844;2023-11-19T13:25:51;12.20;91.00
54202;DHT22;40108;53.152;5.844;2023-11-19T13:28:17;12.20;91.10
54202;DHT22;40108;53.152;5.844;2023-11-19T13:30:43;12.10;91.10
54202;DHT22;40108;53.152;5.844;2023-11-19T13:33:09;12.10;91.20
54202;DHT22;40108;53.152;5.844;2023-11-19T13:35:38;12.10;91.20
54202;DHT22;40108;53.152;5.844;2023-11-19T13:38:06;12.10;91.20
54202;DHT22;40108;53.152;5.844;2023-11-19T13:40:34;12.10;91.20
54202;DHT22;40108;53.152;5.844;2023-11-19T13:43:00;12.10;91.20
54202;DHT22;40108;53.152;5.844;2023-11-19T13:45:25;12.10;91.20
54202;DHT22;40108;53.152;5.844;2023-11-19T13:47:51;12.10;91.30
54202;DHT22;40108;53.152;5.844;2023-11-19T13:50:17;12.10;91.40
54202;DHT22;40108;53.152;5.844;2023-11-19T13:52:44;12.00;91.50
54202;DHT22;40108;53.152;5.844;2023-11-19T13:55:12;12.00;91.60
54202;DHT22;40108;53.152;5.844;2023-11-19T13:57:39;11.90;91.60
54202;DHT22;40108;53.152;5.844;2023-11-19T14:00:09;12.00;91.60
54202;DHT22;40108;53.152;5.844;2023-11-19T14:02:39;11.90;91.60
54202;DHT22;40108;53.152;5.844;2023-11-19T14:05:06;12.00;91.60
54202;DHT22;40108;53.152;5.844;2023-11-19T14:07:32;11.90;91.60
54202;DHT22;40108;53.152;5.844;2023-11-19T14:09:58;11.90;91.60
54202;DHT22;40108;53.152;5.844;2023-11-19T14:12:24;11.90;91.60
54202;DHT22;40108;53.152;5.844;2023-11-19T14:14:50;11.90;91.60
54202;DHT22;40108;53.152;5.844;2023-11-19T14:17:16;11.90;91.70
54202;DHT22;40108;53.152;5.844;2023-11-19T14:19:42;11.80;91.70
54202;DHT22;40108;53.152;5.844;2023-11-19T14:22:08;11.70;91.90
54202;DHT22;40108;53.152;5.844;2023-11-19T14:24:34;11.70;92.00
54202;DHT22;40108;53.152;5.844;2023-11-19T14:27:00;11.70;92.10
54202;DHT22;40108;53.152;5.844;2023-11-19T14:29:27;11.70;92.10
54202;DHT22;40108;53.152;5.844;2023-11-19T14:31:54;11.70;92.10
54202;DHT22;40108;53.152;5.844;2023-11-19T14:34:22;11.70;92.10
54202;DHT22;40108;53.152;5.844;2023-11-19T14:36:48;11.70;92.10
54202;DHT22;40108;53.152;5.844;2023-11-19T14:39:15;11.70;92.00
54202;DHT22;40108;53.152;5.844;2023-11-19T14:41:42;11.70;91.90
54202;DHT22;40108;53.152;5.844;2023-11-19T14:44:07;11.70;91.90
54202;DHT22;40108;53.152;5.844;2023-11-19T14:46:35;11.70;91.90
54202;DHT22;40108;53.152;5.844;2023-11-19T14:49:01;11.70;91.80
54202;DHT22;40108;53.152;5.844;2023-11-19T14:51:26;11.70;91.90
54202;DHT22;40108;53.152;5.844;2023-11-19T14:53:52;11.60;91.80
54202;DHT22;40108;53.152;5.844;2023-11-19T14:56:18;11.60;91.80
54202;DHT22;40108;53.152;5.844;2023-11-19T14:58:44;11.70;91.90
54202;DHT22;40108;53.152;5.844;2023-11-19T15:01:14;11.60;91.90
54202;DHT22;40108;53.152;5.844;2023-11-19T15:03:40;11.60;91.90
54202;DHT22;40108;53.152;5.844;2023-11-19T15:06:06;11.60;92.00
54202;DHT22;40108;53.152;5.844;2023-11-19T15:08:33;11.70;91.90
54202;DHT22;40108;53.152;5.844;2023-11-19T15:10:59;11.60;91.90
54202;DHT22;40108;53.152;5.844;2023-11-19T15:13:27;11.60;91.90
54202;DHT22;40108;53.152;5.844;2023-11-19T15:15:53;11.60;92.00
54202;DHT22;40108;53.152;5.844;2023-11-19T15:18:19;11.60;92.30
54202;DHT22;40108;53.152;5.844;2023-11-19T15:20:46;11.60;92.70
54202;DHT22;40108;53.152;5.844;2023-11-19T15:23:13;11.50;92.90
54202;DHT22;40108;53.152;5.844;2023-11-19T15:25:39;11.40;93.20
54202;DHT22;40108;53.152;5.844;2023-11-19T15:28:05;11.30;93.60
54202;DHT22;40108;53.152;5.844;2023-11-19T15:30:30;11.20;93.80
54202;DHT22;40108;53.152;5.844;2023-11-19T15:32:56;11.20;94.10
54202;DHT22;40108;53.152;5.844;2023-11-19T15:35:22;11.20;94.20
54202;DHT22;40108;53.152;5.844;2023-11-19T15:37:48;11.10;94.20
54202;DHT22;40108;53.152;5.844;2023-11-19T15:40:14;11.10;94.30
54202;DHT22;40108;53.152;5.844;2023-11-19T15:42:40;11.10;94.40
54202;DHT22;40108;53.152;5.844;2023-11-19T15:45:06;11.10;94.60
54202;DHT22;40108;53.152;5.844;2023-11-19T15:47:33;11.10;94.70
54202;DHT22;40108;53.152;5.844;2023-11-19T15:50:01;11.10;94.80
54202;DHT22;40108;53.152;5.844;2023-11-19T15:52:28;11.10;94.90
54202;DHT22;40108;53.152;5.844;2023-11-19T15:54:58;11.10;95.00